Lynn Lake, Lynn Lake Airport (CYYL)

NameLynn Lake Airport
CityLynn Lake
CountryCanada
ICAOCYYL
IATAYYL
Altitude357 m
CoordinatesGoogle Map
Live Air TrafficLiveATC.net
METARCYYL 120300Z AUTO 19007KT 9SM CLR M17/M18 A2998 RMK PRESFR SLP197
2019-11-12 03:00:00 Wind: South (190°) 3.6 m/s - Visibility: 14484.06 m - Temperature: -17 °C - Dew point: -18 °C - Humidity: 92% - Pressure: 1015.24 hPa

Sorry, no flights used the airport in this database.